N8119Q KSEE-

Flight info

Callsign N8119Q
Flight time N/A
Altitude VFR
Route
Aircraft P28A/L-DOV/C

Departure

Time 2026-05-04 03:00
Airport Gillespie Field (KSEE)

Arrival

Time N/A
Airport -
Time Latitude Longitude Altitude Speed Heading
2026-05-04 02:51 32.82574 -116.97323 377 ft 0 kts 154°
2026-05-04 02:54 32.82570 -116.97317 377 ft 3 kts 116°
2026-05-04 02:54 32.82602 -116.97300 377 ft 8 kts 358°
2026-05-04 02:55 32.82597 -116.97163 378 ft 12 kts 102°
2026-05-04 02:55 32.82578 -116.97058 380 ft 14 kts 102°
2026-05-04 02:55 32.82556 -116.96935 382 ft 16 kts 102°
2026-05-04 02:56 32.82533 -116.96797 384 ft 17 kts 103°
2026-05-04 02:56 32.82505 -116.96652 386 ft 18 kts 102°
2026-05-04 02:56 32.82479 -116.96495 389 ft 19 kts 90°
2026-05-04 02:56 32.82570 -116.96439 390 ft 9 kts 359°
2026-05-04 02:57 32.82603 -116.96446 390 ft 0 kts 322°
2026-05-04 02:57 32.82603 -116.96447 390 ft 0 kts 320°
2026-05-04 02:59 32.82612 -116.96455 390 ft 8 kts 322°
2026-05-04 02:59 32.82673 -116.96622 387 ft 45 kts 281°
2026-05-04 02:59 32.82735 -116.96966 451 ft 70 kts 280°
2026-05-04 02:59 32.82843 -116.97520 746 ft 70 kts 277°
2026-05-04 03:00 32.82921 -116.98076 1052 ft 68 kts 272°
2026-05-04 03:00 32.82957 -116.98635 1303 ft 72 kts 278°
2026-05-04 03:00 32.83270 -116.99080 1524 ft 71 kts 330°
2026-05-04 03:00 32.83784 -116.99071 1724 ft 77 kts
2026-05-04 03:01 32.84306 -116.98861 1985 ft 78 kts
2026-05-04 03:01 32.84859 -116.98803 2187 ft 86 kts 353°
2026-05-04 03:01 32.85458 -116.98771 2483 ft 86 kts 357°
2026-05-04 03:01 32.86041 -116.98751 2799 ft 81 kts 348°
2026-05-04 03:02 32.86643 -116.98762 3018 ft 89 kts 352°
2026-05-04 03:02 32.87260 -116.98749 3285 ft 91 kts 356°
2026-05-04 03:02 32.87899 -116.98727 3563 ft 92 kts 355°
2026-05-04 03:02 32.88544 -116.98693 3814 ft 94 kts 353°
2026-05-04 03:03 32.89194 -116.98655 4096 ft 93 kts 356°
2026-05-04 03:03 32.89845 -116.98611 4332 ft 96 kts 353°
2026-05-04 03:03 32.90514 -116.98562 4608 ft 95 kts 356°
2026-05-04 03:03 32.91177 -116.98509 4864 ft 95 kts 356°
2026-05-04 03:04 32.91841 -116.98455 5105 ft 97 kts 354°
2026-05-04 03:04 32.92514 -116.98395 5348 ft 98 kts 353°
2026-05-04 03:04 32.93191 -116.98339 5593 ft 99 kts 353°
2026-05-04 03:04 32.93874 -116.98277 5826 ft 100 kts 352°
2026-05-04 03:05 32.94570 -116.98212 6073 ft 100 kts 352°
2026-05-04 03:05 32.95270 -116.98148 6303 ft 101 kts 352°
2026-05-04 03:05 32.95962 -116.98083 6542 ft 100 kts 351°
2026-05-04 03:05 32.96666 -116.98019 6764 ft 102 kts 353°
2026-05-04 03:06 32.97394 -116.97951 6990 ft 104 kts 351°
2026-05-04 03:06 32.98101 -116.97883 7227 ft 102 kts 351°
2026-05-04 03:06 32.98824 -116.97814 7450 ft 104 kts 351°
2026-05-04 03:06 32.99549 -116.97748 7647 ft 106 kts 351°
2026-05-04 03:07 33.00291 -116.97677 7876 ft 106 kts 351°
2026-05-04 03:07 33.01033 -116.97605 8081 ft 108 kts 350°
2026-05-04 03:07 33.01785 -116.97535 8304 ft 107 kts 352°
2026-05-04 03:07 33.02525 -116.97463 8509 ft 108 kts 349°
2026-05-04 03:08 33.03287 -116.97392 8714 ft 109 kts 352°
2026-05-04 03:08 33.04052 -116.97320 8902 ft 112 kts 350°
2026-05-04 03:08 33.04830 -116.97244 9090 ft 113 kts 349°
2026-05-04 03:08 33.05604 -116.97168 9325 ft 110 kts 348°
2026-05-04 03:09 33.06390 -116.97096 9493 ft 114 kts 349°
2026-05-04 03:09 33.07177 -116.97020 9694 ft 114 kts 349°
2026-05-04 03:09 33.07970 -116.96945 9878 ft 115 kts 348°
2026-05-04 03:09 33.08754 -116.96870 10076 ft 114 kts 348°
2026-05-04 03:10 33.09543 -116.96793 10277 ft 113 kts 348°
2026-05-04 03:10 33.10347 -116.96720 10399 ft 119 kts 348°
2026-05-04 03:10 33.11235 -116.96645 10420 ft 136 kts 352°
2026-05-04 03:10 33.12232 -116.96548 10420 ft 150 kts 353°
2026-05-04 03:11 33.13291 -116.96433 10419 ft 152 kts 355°
2026-05-04 03:11 33.14320 -116.96319 10415 ft 146 kts 354°
2026-05-04 03:11 33.15332 -116.96214 10416 ft 142 kts 355°
2026-05-04 03:11 33.16299 -116.96117 10418 ft 138 kts 354°
2026-05-04 03:12 33.17265 -116.96022 10415 ft 136 kts 354°
2026-05-04 03:12 33.17891 -116.95961 10416 ft 134 kts 354°